sensor_id;sensor_type;location;lat;lon;timestamp;pressure;altitude;pressure_sealevel;temperature
73761;BMP280;69240;43.530;-5.646;2023-06-14T00:00:20;101557.81;;;19.37
73761;BMP280;69240;43.530;-5.646;2023-06-14T00:02:46;101553.63;;;19.36
73761;BMP280;69240;43.530;-5.646;2023-06-14T00:05:11;101562.25;;;19.29
73761;BMP280;69240;43.530;-5.646;2023-06-14T00:07:41;101557.81;;;19.26
73761;BMP280;69240;43.530;-5.646;2023-06-14T00:10:11;101561.78;;;19.25
73761;BMP280;69240;43.530;-5.646;2023-06-14T00:12:38;101559.56;;;19.13
73761;BMP280;69240;43.530;-5.646;2023-06-14T00:15:05;101554.13;;;19.24
73761;BMP280;69240;43.530;-5.646;2023-06-14T00:17:30;101559.78;;;19.20
73761;BMP280;69240;43.530;-5.646;2023-06-14T00:19:57;101556.84;;;19.18
73761;BMP280;69240;43.530;-5.646;2023-06-14T00:22:23;101554.84;;;19.24
73761;BMP280;69240;43.530;-5.646;2023-06-14T00:24:53;101547.47;;;19.19
73761;BMP280;69240;43.530;-5.646;2023-06-14T00:27:19;101546.97;;;19.15
73761;BMP280;69240;43.530;-5.646;2023-06-14T00:29:45;101539.34;;;19.14
73761;BMP280;69240;43.530;-5.646;2023-06-14T00:32:10;101544.28;;;19.10
73761;BMP280;69240;43.530;-5.646;2023-06-14T00:34:36;101536.38;;;19.12
73761;BMP280;69240;43.530;-5.646;2023-06-14T00:37:01;101543.53;;;19.09
73761;BMP280;69240;43.530;-5.646;2023-06-14T00:39:27;101536.63;;;19.08
73761;BMP280;69240;43.530;-5.646;2023-06-14T00:41:52;101543.28;;;19.07
73761;BMP280;69240;43.530;-5.646;2023-06-14T00:44:18;101540.81;;;19.04
73761;BMP280;69240;43.530;-5.646;2023-06-14T00:46:47;101531.69;;;19.01
73761;BMP280;69240;43.530;-5.646;2023-06-14T00:49:14;101543.06;;;19.05
73761;BMP280;69240;43.530;-5.646;2023-06-14T00:51:41;101544.00;;;19.02
73761;BMP280;69240;43.530;-5.646;2023-06-14T00:54:06;101550.19;;;19.03
73761;BMP280;69240;43.530;-5.646;2023-06-14T00:56:32;101549.22;;;19.00
73761;BMP280;69240;43.530;-5.646;2023-06-14T00:58:58;101549.22;;;19.00
73761;BMP280;69240;43.530;-5.646;2023-06-14T01:01:24;101539.09;;;18.95
73761;BMP280;69240;43.530;-5.646;2023-06-14T01:03:49;101546.22;;;18.93
73761;BMP280;69240;43.530;-5.646;2023-06-14T01:09:20;101535.13;;;18.85
73761;BMP280;69240;43.530;-5.646;2023-06-14T01:14:21;101544.50;;;18.84
73761;BMP280;69240;43.530;-5.646;2023-06-14T01:16:48;101540.06;;;18.81
73761;BMP280;69240;43.530;-5.646;2023-06-14T01:19:18;101533.66;;;18.79
73761;BMP280;69240;43.530;-5.646;2023-06-14T01:21:48;101541.06;;;18.78
73761;BMP280;69240;43.530;-5.646;2023-06-14T01:24:16;101534.91;;;18.78
73761;BMP280;69240;43.530;-5.646;2023-06-14T01:26:45;101536.63;;;18.75
73761;BMP280;69240;43.530;-5.646;2023-06-14T01:29:13;101538.81;;;18.71
73761;BMP280;69240;43.530;-5.646;2023-06-14T01:31:42;101530.19;;;18.67
73761;BMP280;69240;43.530;-5.646;2023-06-14T01:34:08;101534.13;;;18.66
73761;BMP280;69240;43.530;-5.646;2023-06-14T01:36:36;101535.13;;;18.63
73761;BMP280;69240;43.530;-5.646;2023-06-14T01:39:03;101543.00;;;18.61
73761;BMP280;69240;43.530;-5.646;2023-06-14T01:41:29;101537.56;;;18.61
73761;BMP280;69240;43.530;-5.646;2023-06-14T01:43:56;101527.97;;;18.60
73761;BMP280;69240;43.530;-5.646;2023-06-14T01:46:23;101541.03;;;18.56
73761;BMP280;69240;43.530;-5.646;2023-06-14T01:48:49;101539.53;;;18.55
73761;BMP280;69240;43.530;-5.646;2023-06-14T01:51:15;101540.50;;;18.52
73761;BMP280;69240;43.530;-5.646;2023-06-14T01:53:40;101544.72;;;18.53
73761;BMP280;69240;43.530;-5.646;2023-06-14T01:56:07;101543.00;;;18.56
73761;BMP280;69240;43.530;-5.646;2023-06-14T01:58:32;101538.06;;;18.54
73761;BMP280;69240;43.530;-5.646;2023-06-14T02:00:58;101549.91;;;18.51
73761;BMP280;69240;43.530;-5.646;2023-06-14T02:03:26;101551.59;;;18.49
73761;BMP280;69240;43.530;-5.646;2023-06-14T02:05:52;101556.53;;;18.50
73761;BMP280;69240;43.530;-5.646;2023-06-14T02:08:19;101556.75;;;18.52
73761;BMP280;69240;43.530;-5.646;2023-06-14T02:10:44;101545.22;;;18.52
73761;BMP280;69240;43.530;-5.646;2023-06-14T02:13:10;101549.16;;;18.56
73761;BMP280;69240;43.530;-5.646;2023-06-14T02:15:36;101545.94;;;18.58
73761;BMP280;69240;43.530;-5.646;2023-06-14T02:18:02;101546.22;;;18.65
73761;BMP280;69240;43.530;-5.646;2023-06-14T02:20:28;101552.13;;;18.75
73761;BMP280;69240;43.530;-5.646;2023-06-14T02:22:54;101543.78;;;18.78
73761;BMP280;69240;43.530;-5.646;2023-06-14T02:25:20;101552.63;;;18.79
73761;BMP280;69240;43.530;-5.646;2023-06-14T02:27:46;101548.44;;;18.89
73761;BMP280;69240;43.530;-5.646;2023-06-14T02:30:11;101547.97;;;18.90
73761;BMP280;69240;43.530;-5.646;2023-06-14T02:32:37;101546.50;;;18.89
73761;BMP280;69240;43.530;-5.646;2023-06-14T02:35:03;101558.31;;;18.92
73761;BMP280;69240;43.530;-5.646;2023-06-14T02:37:29;101555.38;;;18.95
73761;BMP280;69240;43.530;-5.646;2023-06-14T02:39:55;101555.09;;;18.93
73761;BMP280;69240;43.530;-5.646;2023-06-14T02:42:21;101557.59;;;18.97
73761;BMP280;69240;43.530;-5.646;2023-06-14T02:44:46;101555.63;;;18.97
73761;BMP280;69240;43.530;-5.646;2023-06-14T02:47:17;101563.75;;;18.97
73761;BMP280;69240;43.530;-5.646;2023-06-14T02:49:42;101563.03;;;18.97
73761;BMP280;69240;43.530;-5.646;2023-06-14T02:52:08;101559.03;;;18.98
73761;BMP280;69240;43.530;-5.646;2023-06-14T02:54:34;101562.03;;;19.00
73761;BMP280;69240;43.530;-5.646;2023-06-14T02:56:59;101561.28;;;18.99
73761;BMP280;69240;43.530;-5.646;2023-06-14T02:59:25;101557.09;;;19.04
73761;BMP280;69240;43.530;-5.646;2023-06-14T03:01:51;101556.34;;;19.09
73761;BMP280;69240;43.530;-5.646;2023-06-14T03:04:17;101552.91;;;19.08
73761;BMP280;69240;43.530;-5.646;2023-06-14T03:06:42;101558.81;;;19.12
73761;BMP280;69240;43.530;-5.646;2023-06-14T03:09:09;101554.63;;;19.11
73761;BMP280;69240;43.530;-5.646;2023-06-14T03:11:35;101542.06;;;19.08
73761;BMP280;69240;43.530;-5.646;2023-06-14T03:14:01;101552.91;;;19.08
73761;BMP280;69240;43.530;-5.646;2023-06-14T03:16:29;101556.34;;;19.03
73761;BMP280;69240;43.530;-5.646;2023-06-14T03:18:55;101552.38;;;18.93
73761;BMP280;69240;43.530;-5.646;2023-06-14T03:21:21;101556.59;;;18.89
73761;BMP280;69240;43.530;-5.646;2023-06-14T03:23:47;101557.06;;;18.82
73761;BMP280;69240;43.530;-5.646;2023-06-14T03:26:14;101562.50;;;18.76
73761;BMP280;69240;43.530;-5.646;2023-06-14T03:28:47;101563.22;;;18.71
73761;BMP280;69240;43.530;-5.646;2023-06-14T03:31:13;101561.00;;;18.70
73761;BMP280;69240;43.530;-5.646;2023-06-14T03:33:39;101559.28;;;18.61
73761;BMP280;69240;43.530;-5.646;2023-06-14T03:36:05;101554.81;;;18.58
73761;BMP280;69240;43.530;-5.646;2023-06-14T03:38:32;101553.09;;;18.55
73761;BMP280;69240;43.530;-5.646;2023-06-14T03:40:58;101554.31;;;18.54
73761;BMP280;69240;43.530;-5.646;2023-06-14T03:43:23;101558.03;;;18.51
73761;BMP280;69240;43.530;-5.646;2023-06-14T03:45:49;101564.69;;;18.50
73761;BMP280;69240;43.530;-5.646;2023-06-14T03:48:14;101570.09;;;18.50
73761;BMP280;69240;43.530;-5.646;2023-06-14T03:50:40;101567.13;;;18.48
73761;BMP280;69240;43.530;-5.646;2023-06-14T03:53:08;101564.91;;;18.47
73761;BMP280;69240;43.530;-5.646;2023-06-14T03:55:33;101560.47;;;18.44
73761;BMP280;69240;43.530;-5.646;2023-06-14T03:57:59;101565.13;;;18.43
73761;BMP280;69240;43.530;-5.646;2023-06-14T04:00:25;101558.47;;;18.39
73761;BMP280;69240;43.530;-5.646;2023-06-14T04:02:51;101567.59;;;18.41
73761;BMP280;69240;43.530;-5.646;2023-06-14T04:05:17;101571.81;;;18.42
73761;BMP280;69240;43.530;-5.646;2023-06-14T04:07:47;101569.09;;;18.42
73761;BMP280;69240;43.530;-5.646;2023-06-14T04:10:15;101577.44;;;18.44
73761;BMP280;69240;43.530;-5.646;2023-06-14T04:12:41;101575.97;;;18.43
73761;BMP280;69240;43.530;-5.646;2023-06-14T04:15:08;101574.50;;;18.42
73761;BMP280;69240;43.530;-5.646;2023-06-14T04:17:34;101575.97;;;18.43
73761;BMP280;69240;43.530;-5.646;2023-06-14T04:20:00;101573.00;;;18.41
73761;BMP280;69240;43.530;-5.646;2023-06-14T04:22:29;101575.75;;;18.47
73761;BMP280;69240;43.530;-5.646;2023-06-14T04:24:55;101581.88;;;18.47
73761;BMP280;69240;43.530;-5.646;2023-06-14T04:27:26;101577.44;;;18.44
73761;BMP280;69240;43.530;-5.646;2023-06-14T04:29:52;101589.53;;;18.49
73761;BMP280;69240;43.530;-5.646;2023-06-14T04:32:28;101582.91;;;18.50
73761;BMP280;69240;43.530;-5.646;2023-06-14T04:34:59;101581.88;;;18.47
73761;BMP280;69240;43.530;-5.646;2023-06-14T04:37:27;101578.94;;;18.45
73761;BMP280;69240;43.530;-5.646;2023-06-14T04:39:55;101591.25;;;18.46
73761;BMP280;69240;43.530;-5.646;2023-06-14T04:42:21;101579.66;;;18.40
73761;BMP280;69240;43.530;-5.646;2023-06-14T04:44:50;101592.22;;;18.43
73761;BMP280;69240;43.530;-5.646;2023-06-14T04:47:17;101586.81;;;18.43
73761;BMP280;69240;43.530;-5.646;2023-06-14T04:49:43;101589.28;;;18.41
73761;BMP280;69240;43.530;-5.646;2023-06-14T04:52:08;101590.97;;;18.39
73761;BMP280;69240;43.530;-5.646;2023-06-14T04:54:36;101588.06;;;18.42
73761;BMP280;69240;43.530;-5.646;2023-06-14T04:57:06;101585.56;;;18.44
73761;BMP280;69240;43.530;-5.646;2023-06-14T04:59:31;101598.13;;;18.47
73761;BMP280;69240;43.530;-5.646;2023-06-14T05:02:01;101593.97;;;18.46
73761;BMP280;69240;43.530;-5.646;2023-06-14T05:04:27;101589.28;;;18.52
73761;BMP280;69240;43.530;-5.646;2023-06-14T05:06:53;101590.56;;;18.62
73761;BMP280;69240;43.530;-5.646;2023-06-14T05:09:25;101598.22;;;18.80
73761;BMP280;69240;43.530;-5.646;2023-06-14T05:11:51;101595.34;;;19.00
73761;BMP280;69240;43.530;-5.646;2023-06-14T05:14:19;101605.44;;;19.22
73761;BMP280;69240;43.530;-5.646;2023-06-14T05:19:25;101615.88;;;20.13
73761;BMP280;69240;43.530;-5.646;2023-06-14T05:21:51;101623.56;;;20.55
73761;BMP280;69240;43.530;-5.646;2023-06-14T05:24:18;101619.78;;;21.04
73761;BMP280;69240;43.530;-5.646;2023-06-14T05:26:54;101632.25;;;21.53
73761;BMP280;69240;43.530;-5.646;2023-06-14T05:29:20;101631.47;;;22.19
73761;BMP280;69240;43.530;-5.646;2023-06-14T05:31:45;101629.19;;;22.73
73761;BMP280;69240;43.530;-5.646;2023-06-14T05:34:11;101643.84;;;23.33
73761;BMP280;69240;43.530;-5.646;2023-06-14T05:36:36;101641.94;;;23.79
73761;BMP280;69240;43.530;-5.646;2023-06-14T05:39:02;101653.88;;;24.15
73761;BMP280;69240;43.530;-5.646;2023-06-14T05:41:28;101651.91;;;24.36
73761;BMP280;69240;43.530;-5.646;2023-06-14T05:43:55;101648.00;;;24.11
73761;BMP280;69240;43.530;-5.646;2023-06-14T05:46:22;101653.03;;;24.74
73761;BMP280;69240;43.530;-5.646;2023-06-14T05:48:50;101660.31;;;25.00
73761;BMP280;69240;43.530;-5.646;2023-06-14T05:51:16;101662.88;;;25.18
73761;BMP280;69240;43.530;-5.646;2023-06-14T05:53:46;101663.09;;;25.56
73761;BMP280;69240;43.530;-5.646;2023-06-14T05:56:13;101679.63;;;26.36
73761;BMP280;69240;43.530;-5.646;2023-06-14T05:58:39;101668.53;;;26.79
73761;BMP280;69240;43.530;-5.646;2023-06-14T06:01:04;101680.41;;;27.26
73761;BMP280;69240;43.530;-5.646;2023-06-14T06:03:30;101679.03;;;27.49
73761;BMP280;69240;43.530;-5.646;2023-06-14T06:05:56;101680.00;;;27.84
73761;BMP280;69240;43.530;-5.646;2023-06-14T06:08:21;101679.09;;;28.13
73761;BMP280;69240;43.530;-5.646;2023-06-14T06:10:47;101677.53;;;28.27
73761;BMP280;69240;43.530;-5.646;2023-06-14T06:13:12;101669.41;;;28.37
73761;BMP280;69240;43.530;-5.646;2023-06-14T06:15:38;101681.25;;;28.22
73761;BMP280;69240;43.530;-5.646;2023-06-14T06:18:03;101693.19;;;28.49
73761;BMP280;69240;43.530;-5.646;2023-06-14T06:20:29;101695.88;;;28.81
73761;BMP280;69240;43.530;-5.646;2023-06-14T06:23:00;101691.19;;;29.08
73761;BMP280;69240;43.530;-5.646;2023-06-14T06:25:26;101683.88;;;29.03
73761;BMP280;69240;43.530;-5.646;2023-06-14T06:27:53;101703.06;;;28.52
73761;BMP280;69240;43.530;-5.646;2023-06-14T06:30:19;101686.34;;;29.16
73761;BMP280;69240;43.530;-5.646;2023-06-14T06:32:45;101718.50;;;29.91
73761;BMP280;69240;43.530;-5.646;2023-06-14T06:35:11;101722.81;;;31.20
73761;BMP280;69240;43.530;-5.646;2023-06-14T06:37:38;101734.91;;;31.93
73761;BMP280;69240;43.530;-5.646;2023-06-14T06:40:04;101733.97;;;32.09
73761;BMP280;69240;43.530;-5.646;2023-06-14T06:42:31;101691.19;;;31.23
73761;BMP280;69240;43.530;-5.646;2023-06-14T06:44:57;101695.28;;;31.03
73761;BMP280;69240;43.530;-5.646;2023-06-14T06:47:23;101704.00;;;31.00
73761;BMP280;69240;43.530;-5.646;2023-06-14T06:49:49;101718.25;;;31.53
73761;BMP280;69240;43.530;-5.646;2023-06-14T06:52:14;101707.97;;;31.84
73761;BMP280;69240;43.530;-5.646;2023-06-14T06:54:40;101682.13;;;31.32
73761;BMP280;69240;43.530;-5.646;2023-06-14T06:57:06;101715.22;;;31.49
73761;BMP280;69240;43.530;-5.646;2023-06-14T06:59:32;101702.00;;;30.36
73761;BMP280;69240;43.530;-5.646;2023-06-14T07:01:58;101710.41;;;30.83
73761;BMP280;69240;43.530;-5.646;2023-06-14T07:04:23;101738.63;;;30.91
73761;BMP280;69240;43.530;-5.646;2023-06-14T07:06:49;101754.31;;;31.93
73761;BMP280;69240;43.530;-5.646;2023-06-14T07:09:15;101741.19;;;32.96
73761;BMP280;69240;43.530;-5.646;2023-06-14T07:11:42;101764.75;;;32.85
73761;BMP280;69240;43.530;-5.646;2023-06-14T07:14:08;101732.56;;;33.68
73761;BMP280;69240;43.530;-5.646;2023-06-14T07:20:18;101686.41;;;32.64
73761;BMP280;69240;43.530;-5.646;2023-06-14T07:55:02;101689.88;;;27.47
73761;BMP280;69240;43.530;-5.646;2023-06-14T08:35:10;101702.88;;;25.42
73761;BMP280;69240;43.530;-5.646;2023-06-14T08:40:45;101715.03;;;25.68
73761;BMP280;69240;43.530;-5.646;2023-06-14T08:46:41;101715.94;;;23.68
73761;BMP280;69240;43.530;-5.646;2023-06-14T08:49:08;101716.94;;;22.95
73761;BMP280;69240;43.530;-5.646;2023-06-14T08:51:37;101719.22;;;23.23
73761;BMP280;69240;43.530;-5.646;2023-06-14T08:54:21;101728.09;;;23.29
73761;BMP280;69240;43.530;-5.646;2023-06-14T08:56:49;101728.09;;;23.29
73761;BMP280;69240;43.530;-5.646;2023-06-14T08:59:17;101733.75;;;23.18
73761;BMP280;69240;43.530;-5.646;2023-06-14T09:01:43;101727.22;;;23.21
73761;BMP280;69240;43.530;-5.646;2023-06-14T09:04:10;101727.88;;;23.27
73761;BMP280;69240;43.530;-5.646;2023-06-14T09:06:36;101731.69;;;22.87
73761;BMP280;69240;43.530;-5.646;2023-06-14T09:09:02;101722.53;;;23.03
73761;BMP280;69240;43.530;-5.646;2023-06-14T09:11:30;101721.38;;;22.24
73761;BMP280;69240;43.530;-5.646;2023-06-14T09:13:55;101735.34;;;23.08
73761;BMP280;69240;43.530;-5.646;2023-06-14T09:16:21;101732.56;;;22.95
73761;BMP280;69240;43.530;-5.646;2023-06-14T09:18:47;101738.97;;;23.16
73761;BMP280;69240;43.530;-5.646;2023-06-14T09:21:14;101739.66;;;23.48
73761;BMP280;69240;43.530;-5.646;2023-06-14T09:23:42;101747.31;;;23.05
73761;BMP280;69240;43.530;-5.646;2023-06-14T09:26:11;101745.84;;;23.04
73761;BMP280;69240;43.530;-5.646;2023-06-14T09:28:48;101752.00;;;23.23
73761;BMP280;69240;43.530;-5.646;2023-06-14T09:31:18;101757.78;;;23.51
73761;BMP280;69240;43.530;-5.646;2023-06-14T09:33:49;101755.06;;;23.76
73761;BMP280;69240;43.530;-5.646;2023-06-14T09:36:21;101747.41;;;23.31
73761;BMP280;69240;43.530;-5.646;2023-06-14T09:38:54;101752.97;;;23.57
73761;BMP280;69240;43.530;-5.646;2023-06-14T09:41:20;101762.72;;;23.65
73761;BMP280;69240;43.530;-5.646;2023-06-14T09:43:46;101760.09;;;24.24
73761;BMP280;69240;43.530;-5.646;2023-06-14T09:46:12;101758.88;;;23.86
73761;BMP280;69240;43.530;-5.646;2023-06-14T09:48:38;101768.19;;;24.43
73761;BMP280;69240;43.530;-5.646;2023-06-14T09:51:10;101759.53;;;24.65
73761;BMP280;69240;43.530;-5.646;2023-06-14T09:53:36;101767.25;;;24.40
73761;BMP280;69240;43.530;-5.646;2023-06-14T09:56:04;101766.22;;;24.30
73761;BMP280;69240;43.530;-5.646;2023-06-14T09:58:31;101776.69;;;23.49
73761;BMP280;69240;43.530;-5.646;2023-06-14T10:00:58;101780.53;;;24.23
73761;BMP280;69240;43.530;-5.646;2023-06-14T10:03:28;101770.66;;;24.20
73761;BMP280;69240;43.530;-5.646;2023-06-14T10:05:55;101763.94;;;23.95
73761;BMP280;69240;43.530;-5.646;2023-06-14T10:08:25;101776.41;;;24.04
73761;BMP280;69240;43.530;-5.646;2023-06-14T10:10:55;101780.50;;;24.10
73761;BMP280;69240;43.530;-5.646;2023-06-14T10:13:21;101773.59;;;24.22
73761;BMP280;69240;43.530;-5.646;2023-06-14T10:24:33;101790.19;;;24.37
73761;BMP280;69240;43.530;-5.646;2023-06-14T10:26:59;101791.06;;;24.19
73761;BMP280;69240;43.530;-5.646;2023-06-14T10:29:29;101794.84;;;24.29
73761;BMP280;69240;43.530;-5.646;2023-06-14T10:31:59;101804.09;;;24.13
73761;BMP280;69240;43.530;-5.646;2023-06-14T10:34:38;101797.56;;;24.42
73761;BMP280;69240;43.530;-5.646;2023-06-14T10:39:39;101793.06;;;24.32
73761;BMP280;69240;43.530;-5.646;2023-06-14T10:42:06;101796.66;;;24.60
73761;BMP280;69240;43.530;-5.646;2023-06-14T10:44:32;101793.75;;;24.45
73761;BMP280;69240;43.530;-5.646;2023-06-14T10:46:59;101792.53;;;24.33
73761;BMP280;69240;43.530;-5.646;2023-06-14T10:49:45;101793.34;;;24.28
73761;BMP280;69240;43.530;-5.646;2023-06-14T10:52:21;101789.16;;;24.14
73761;BMP280;69240;43.530;-5.646;2023-06-14T10:55:13;101784.78;;;23.23
73761;BMP280;69240;43.530;-5.646;2023-06-14T10:57:58;101783.78;;;23.39
73761;BMP280;69240;43.530;-5.646;2023-06-14T11:00:28;101774.31;;;23.27
73761;BMP280;69240;43.530;-5.646;2023-06-14T11:04:01;101781.69;;;23.32
73761;BMP280;69240;43.530;-5.646;2023-06-14T11:05:57;101770.66;;;22.87
73761;BMP280;69240;43.530;-5.646;2023-06-14T11:11:10;101764.88;;;22.54
73761;BMP280;69240;43.530;-5.646;2023-06-14T11:13:43;101769.25;;;22.44
73761;BMP280;69240;43.530;-5.646;2023-06-14T11:16:17;101773.25;;;22.19
73761;BMP280;69240;43.530;-5.646;2023-06-14T11:18:44;101770.34;;;22.54
73761;BMP280;69240;43.530;-5.646;2023-06-14T11:21:11;101771.41;;;22.69
73761;BMP280;69240;43.530;-5.646;2023-06-14T11:23:36;101783.19;;;22.59
73761;BMP280;69240;43.530;-5.646;2023-06-14T11:26:03;101784.50;;;23.08
73761;BMP280;69240;43.530;-5.646;2023-06-14T11:28:57;101780.25;;;22.94
73761;BMP280;69240;43.530;-5.646;2023-06-14T11:31:24;101777.31;;;22.73
73761;BMP280;69240;43.530;-5.646;2023-06-14T11:33:50;101772.75;;;22.63
73761;BMP280;69240;43.530;-5.646;2023-06-14T11:36:16;101772.88;;;22.89
73761;BMP280;69240;43.530;-5.646;2023-06-14T11:38:42;101779.53;;;22.08
73761;BMP280;69240;43.530;-5.646;2023-06-14T11:41:07;101776.13;;;22.50
73761;BMP280;69240;43.530;-5.646;2023-06-14T11:43:33;101778.38;;;22.22
73761;BMP280;69240;43.530;-5.646;2023-06-14T11:46:00;101771.06;;;22.36
73761;BMP280;69240;43.530;-5.646;2023-06-14T11:48:38;101762.91;;;22.12
73761;BMP280;69240;43.530;-5.646;2023-06-14T11:51:04;101770.28;;;22.17
73761;BMP280;69240;43.530;-5.646;2023-06-14T11:53:30;101773.09;;;21.82
73761;BMP280;69240;43.530;-5.646;2023-06-14T11:55:57;101768.06;;;22.15
73761;BMP280;69240;43.530;-5.646;2023-06-14T11:58:23;101770.97;;;21.99
73761;BMP280;69240;43.530;-5.646;2023-06-14T12:00:49;101765.81;;;21.66
73761;BMP280;69240;43.530;-5.646;2023-06-14T12:03:14;101768.56;;;21.90
73761;BMP280;69240;43.530;-5.646;2023-06-14T12:05:40;101783.84;;;22.22
73761;BMP280;69240;43.530;-5.646;2023-06-14T12:08:06;101766.28;;;21.70
73761;BMP280;69240;43.530;-5.646;2023-06-14T12:10:42;101768.03;;;21.97
73761;BMP280;69240;43.530;-5.646;2023-06-14T12:13:10;101767.69;;;22.30
73761;BMP280;69240;43.530;-5.646;2023-06-14T12:15:36;101769.53;;;21.68
73761;BMP280;69240;43.530;-5.646;2023-06-14T12:18:05;101781.47;;;21.60
73761;BMP280;69240;43.530;-5.646;2023-06-14T12:20:32;101779.03;;;21.86
73761;BMP280;69240;43.530;-5.646;2023-06-14T12:23:03;101770.81;;;21.62
73761;BMP280;69240;43.530;-5.646;2023-06-14T12:25:30;101770.63;;;21.84
73761;BMP280;69240;43.530;-5.646;2023-06-14T12:27:57;101770.97;;;21.75
73761;BMP280;69240;43.530;-5.646;2023-06-14T12:30:23;101780.94;;;21.61
73761;BMP280;69240;43.530;-5.646;2023-06-14T12:32:49;101769.41;;;21.50
73761;BMP280;69240;43.530;-5.646;2023-06-14T12:35:17;101771.72;;;21.40
73761;BMP280;69240;43.530;-5.646;2023-06-14T12:37:43;101760.44;;;21.55
73761;BMP280;69240;43.530;-5.646;2023-06-14T12:40:09;101759.53;;;21.07
73761;BMP280;69240;43.530;-5.646;2023-06-14T12:42:36;101768.28;;;21.34
73761;BMP280;69240;43.530;-5.646;2023-06-14T12:45:02;101767.06;;;21.30
73761;BMP280;69240;43.530;-5.646;2023-06-14T12:47:28;101754.38;;;21.43
73761;BMP280;69240;43.530;-5.646;2023-06-14T12:49:53;101755.47;;;21.59
73761;BMP280;69240;43.530;-5.646;2023-06-14T12:52:19;101747.25;;;21.35
73761;BMP280;69240;43.530;-5.646;2023-06-14T12:54:44;101737.53;;;21.39
73761;BMP280;69240;43.530;-5.646;2023-06-14T12:57:10;101740.44;;;21.47
73761;BMP280;69240;43.530;-5.646;2023-06-14T12:59:36;101748.72;;;21.36
73761;BMP280;69240;43.530;-5.646;2023-06-14T13:02:12;101744.28;;;21.33
73761;BMP280;69240;43.530;-5.646;2023-06-14T13:04:38;101743.22;;;21.07
73761;BMP280;69240;43.530;-5.646;2023-06-14T13:07:04;101727.59;;;21.47
73761;BMP280;69240;43.530;-5.646;2023-06-14T13:09:30;101722.06;;;21.29
73761;BMP280;69240;43.530;-5.646;2023-06-14T13:11:56;101730.22;;;21.23
73761;BMP280;69240;43.530;-5.646;2023-06-14T13:14:21;101731.47;;;21.28
73761;BMP280;69240;43.530;-5.646;2023-06-14T13:16:48;101732.50;;;21.20
73761;BMP280;69240;43.530;-5.646;2023-06-14T13:19:13;101719.81;;;20.98
73761;BMP280;69240;43.530;-5.646;2023-06-14T13:21:39;101733.44;;;21.22
73761;BMP280;69240;43.530;-5.646;2023-06-14T13:24:05;101725.84;;;21.15
73761;BMP280;69240;43.530;-5.646;2023-06-14T13:26:32;101723.38;;;21.17
73761;BMP280;69240;43.530;-5.646;2023-06-14T13:28:58;101726.47;;;21.32
73761;BMP280;69240;43.530;-5.646;2023-06-14T13:31:23;101738.13;;;21.27
73761;BMP280;69240;43.530;-5.646;2023-06-14T13:33:49;101730.66;;;21.33
73761;BMP280;69240;43.530;-5.646;2023-06-14T13:36:14;101737.75;;;21.12
73761;BMP280;69240;43.530;-5.646;2023-06-14T13:38:40;101740.94;;;21.22
73761;BMP280;69240;43.530;-5.646;2023-06-14T13:41:06;101738.13;;;21.33
73761;BMP280;69240;43.530;-5.646;2023-06-14T13:43:31;101749.53;;;21.26
73761;BMP280;69240;43.530;-5.646;2023-06-14T13:45:57;101745.84;;;21.23
73761;BMP280;69240;43.530;-5.646;2023-06-14T13:48:22;101746.78;;;21.31
73761;BMP280;69240;43.530;-5.646;2023-06-14T13:50:49;101763.53;;;21.06
73761;BMP280;69240;43.530;-5.646;2023-06-14T13:53:14;101770.75;;;20.92
73761;BMP280;69240;43.530;-5.646;2023-06-14T13:55:40;101763.34;;;20.98
73761;BMP280;69240;43.530;-5.646;2023-06-14T13:58:05;101756.50;;;21.21
73761;BMP280;69240;43.530;-5.646;2023-06-14T14:00:31;101761.63;;;20.90
73761;BMP280;69240;43.530;-5.646;2023-06-14T14:02:57;101770.88;;;21.22
73761;BMP280;69240;43.530;-5.646;2023-06-14T14:05:25;101752.22;;;21.31
73761;BMP280;69240;43.530;-5.646;2023-06-14T14:07:55;101769.03;;;21.35
73761;BMP280;69240;43.530;-5.646;2023-06-14T14:10:22;101763.13;;;21.31
73761;BMP280;69240;43.530;-5.646;2023-06-14T14:12:48;101767.28;;;21.37
73761;BMP280;69240;43.530;-5.646;2023-06-14T14:15:14;101754.16;;;21.36
73761;BMP280;69240;43.530;-5.646;2023-06-14T14:17:40;101753.47;;;21.65
73761;BMP280;69240;43.530;-5.646;2023-06-14T14:20:07;101770.13;;;21.21
73761;BMP280;69240;43.530;-5.646;2023-06-14T14:22:32;101756.69;;;21.34
73761;BMP280;69240;43.530;-5.646;2023-06-14T14:24:58;101746.16;;;21.49
73761;BMP280;69240;43.530;-5.646;2023-06-14T14:27:23;101746.06;;;21.25
73761;BMP280;69240;43.530;-5.646;2023-06-14T14:29:49;101750.41;;;21.04
73761;BMP280;69240;43.530;-5.646;2023-06-14T14:32:15;101743.25;;;21.36
73761;BMP280;69240;43.530;-5.646;2023-06-14T14:34:40;101761.56;;;21.41
73761;BMP280;69240;43.530;-5.646;2023-06-14T14:37:06;101750.72;;;21.30
73761;BMP280;69240;43.530;-5.646;2023-06-14T14:39:32;101752.28;;;21.55
73761;BMP280;69240;43.530;-5.646;2023-06-14T14:41:58;101759.69;;;21.60
73761;BMP280;69240;43.530;-5.646;2023-06-14T14:44:23;101767.63;;;21.23
73761;BMP280;69240;43.530;-5.646;2023-06-14T14:46:49;101765.63;;;21.29
73761;BMP280;69240;43.530;-5.646;2023-06-14T14:49:14;101760.63;;;21.33
73761;BMP280;69240;43.530;-5.646;2023-06-14T14:51:40;101761.94;;;21.21
73761;BMP280;69240;43.530;-5.646;2023-06-14T14:54:06;101752.00;;;21.29
73761;BMP280;69240;43.530;-5.646;2023-06-14T14:56:32;101760.91;;;21.30
73761;BMP280;69240;43.530;-5.646;2023-06-14T14:58:57;101741.34;;;21.31
73761;BMP280;69240;43.530;-5.646;2023-06-14T15:01:23;101760.66;;;21.27
73761;BMP280;69240;43.530;-5.646;2023-06-14T15:03:48;101752.00;;;20.83
73761;BMP280;69240;43.530;-5.646;2023-06-14T15:06:14;101753.44;;;20.95
73761;BMP280;69240;43.530;-5.646;2023-06-14T15:08:40;101755.78;;;21.15
73761;BMP280;69240;43.530;-5.646;2023-06-14T15:11:05;101758.78;;;21.17
73761;BMP280;69240;43.530;-5.646;2023-06-14T15:13:32;101758.22;;;21.24
73761;BMP280;69240;43.530;-5.646;2023-06-14T15:15:57;101748.16;;;21.43
73761;BMP280;69240;43.530;-5.646;2023-06-14T15:18:23;101746.69;;;21.42
73761;BMP280;69240;43.530;-5.646;2023-06-14T15:20:48;101752.38;;;21.09
73761;BMP280;69240;43.530;-5.646;2023-06-14T15:23:15;101749.78;;;21.22
73761;BMP280;69240;43.530;-5.646;2023-06-14T15:25:45;101752.84;;;21.13